Time;durP1;ratioP1;P1;durP2;ratioP2;P2;SDS_P1;SDS_P2;PMS_P1;PMS_P2;Temp;Humidity;BMP_temperature;BMP_pressure;BME280_temperature;BME280_humidity;BME280_pressure;Samples;Min_cycle;Max_cycle;Signal;HPM_P1;HPM_P2
2024/02/03 00:01:57;;;;;;;2.25;1.63;;;;;;;7.35;61.96;94025.34;2071553;69;20608;-77
2024/02/03 00:04:24;;;;;;;1.83;1.42;;;;;;;7.51;62.25;94020.50;2075041;69;20652;-77
2024/02/03 00:06:50;;;;;;;2.10;1.58;;;;;;;7.49;62.91;94016.78;2075105;69;20228;-77
2024/02/03 00:09:15;;;;;;;3.10;1.80;;;;;;;7.49;62.07;94025.91;2075275;69;20159;-78
2024/02/03 00:11:46;;;;;;;2.15;1.50;;;;;;;7.41;63.52;94010.41;2075003;69;20151;-78
2024/02/03 00:14:15;;;;;;;3.53;2.03;;;;;;;7.47;62.52;94003.31;2075080;69;20163;-75
2024/02/03 00:16:41;;;;;;;2.58;1.80;;;;;;;7.35;62.83;94008.53;2075109;69;20159;-77
2024/02/03 00:19:08;;;;;;;2.15;1.67;;;;;;;7.44;62.58;94006.50;2074803;69;20176;-75
2024/02/03 00:21:40;;;;;;;3.22;1.77;;;;;;;7.33;62.89;93990.78;2075155;69;20148;-75
2024/02/03 00:24:08;;;;;;;3.00;1.90;;;;;;;7.45;62.37;93996.78;2075236;69;20598;-76
2024/02/03 00:26:36;;;;;;;3.92;1.63;;;;;;;7.49;62.72;93989.50;2075165;69;20156;-75
2024/02/03 00:29:12;;;;;;;2.80;1.60;;;;;;;7.55;62.20;93984.44;2075035;69;20256;-76
2024/02/03 00:31:42;;;;;;;2.22;1.70;;;;;;;7.52;61.78;93979.97;2075798;69;20155;-76
2024/02/03 00:34:09;;;;;;;2.58;1.80;;;;;;;7.56;61.95;93985.19;2075583;69;20135;-75
2024/02/03 00:36:41;;;;;;;2.30;1.48;;;;;;;7.46;61.94;93981.44;2076320;69;20234;-77
2024/02/03 00:39:10;;;;;;;2.42;1.42;;;;;;;7.52;62.43;93977.16;2076619;69;20156;-74
2024/02/03 00:41:37;;;;;;;2.50;1.42;;;;;;;7.64;61.33;93972.66;2075770;69;20147;-77
2024/02/03 00:44:03;;;;;;;2.88;1.50;;;;;;;7.67;61.43;93968.00;2075700;69;20513;-80
2024/02/03 00:46:29;;;;;;;3.47;1.60;;;;;;;7.39;60.99;93952.13;2075631;69;20239;-78
2024/02/03 00:48:55;;;;;;;2.03;1.60;;;;;;;7.60;61.39;93963.13;2075468;69;20235;-77
2024/02/03 00:51:20;;;;;;;2.17;1.40;;;;;;;7.54;61.89;93960.53;2075748;69;20182;-78
2024/02/03 00:53:46;;;;;;;2.55;1.60;;;;;;;7.44;62.33;93968.00;2072167;69;20151;-77
2024/02/03 00:56:13;;;;;;;2.08;1.38;;;;;;;7.52;61.80;93957.56;2075583;69;20188;-76
2024/02/03 00:58:40;;;;;;;2.05;1.40;;;;;;;7.51;61.03;93955.28;2074789;69;20216;-76
2024/02/03 01:01:05;;;;;;;1.80;1.30;;;;;;;7.56;60.87;93949.53;2072067;69;20155;-76
2024/02/03 01:03:31;;;;;;;2.03;1.40;;;;;;;7.65;61.11;93953.78;2072333;69;20172;-80
2024/02/03 01:05:57;;;;;;;4.20;1.50;;;;;;;7.53;60.86;93952.69;2068936;69;20149;-79
2024/02/03 01:08:23;;;;;;;2.00;1.35;;;;;;;7.37;61.96;93938.66;2068957;69;20601;-80
2024/02/03 01:10:49;;;;;;;2.47;1.42;;;;;;;7.31;62.01;93942.97;2072406;69;20148;-76
2024/02/03 01:13:14;;;;;;;2.40;1.60;;;;;;;7.19;61.99;93913.84;2072380;69;20174;-79
2024/02/03 01:15:41;;;;;;;2.00;1.38;;;;;;;7.43;61.87;93943.38;2072126;69;20144;-77
2024/02/03 01:18:10;;;;;;;2.63;1.20;;;;;;;7.44;62.29;93934.38;2072337;69;20255;-79
2024/02/03 01:20:36;;;;;;;1.90;1.20;;;;;;;7.31;63.01;93929.72;2072405;69;20140;-78
2024/02/03 01:23:03;;;;;;;1.70;1.23;;;;;;;7.33;62.48;93929.16;2072150;69;20151;-77
2024/02/03 01:25:28;;;;;;;1.45;1.00;;;;;;;7.45;62.24;93949.16;2069127;69;20202;-80
2024/02/03 01:27:54;;;;;;;1.80;1.20;;;;;;;7.39;62.83;93943.72;2072094;69;20164;-78
2024/02/03 01:30:20;;;;;;;2.17;1.27;;;;;;;7.46;62.42;93940.16;2072200;69;20207;-79
2024/02/03 01:32:47;;;;;;;2.75;1.25;;;;;;;7.42;61.85;93934.19;2072278;69;20598;-79
2024/02/03 01:35:13;;;;;;;3.35;1.50;;;;;;;7.39;61.97;93938.13;2072128;69;20201;-78
2024/02/03 01:37:39;;;;;;;3.15;1.33;;;;;;;7.57;61.76;93931.38;2072464;69;20140;-79
2024/02/03 01:40:05;;;;;;;1.73;1.13;;;;;;;7.45;62.77;93915.53;2072324;69;20152;-80
2024/02/03 01:42:31;;;;;;;1.75;1.05;;;;;;;7.49;63.15;93919.44;2072068;69;20140;-81
2024/02/03 01:44:57;;;;;;;1.63;1.10;;;;;;;7.46;62.85;93911.41;2072264;69;20231;-79
2024/02/03 01:47:24;;;;;;;2.08;1.45;;;;;;;7.54;61.80;93912.88;2072106;69;20147;-77
2024/02/03 01:49:52;;;;;;;2.17;1.20;;;;;;;7.68;61.64;93909.88;2072081;69;20173;-77
2024/02/03 01:52:18;;;;;;;2.78;1.50;;;;;;;7.58;61.41;93906.91;2063462;69;20144;-77
2024/02/03 01:54:45;;;;;;;2.45;1.50;;;;;;;7.44;61.81;93897.97;2073340;69;20398;-78
2024/02/03 01:57:14;;;;;;;1.75;1.40;;;;;;;7.57;62.26;93903.38;2074766;69;20138;-80
2024/02/03 01:59:41;;;;;;;2.22;1.33;;;;;;;7.60;61.31;93905.03;2071630;69;20152;-77
2024/02/03 02:02:07;;;;;;;1.88;1.25;;;;;;;7.57;61.51;93897.03;2075371;69;20140;-80
2024/02/03 02:04:34;;;;;;;1.80;1.10;;;;;;;7.61;61.88;93892.53;2075007;69;20143;-78
2024/02/03 02:07:01;;;;;;;1.77;1.00;;;;;;;7.73;61.06;93906.88;2075211;69;20178;-78
2024/02/03 02:09:28;;;;;;;3.22;1.08;;;;;;;7.73;60.72;93898.47;2075327;69;20136;-81
2024/02/03 02:11:54;;;;;;;1.73;1.10;;;;;;;7.89;60.30;93905.53;2075439;69;20586;-80
2024/02/03 02:14:22;;;;;;;2.55;1.00;;;;;;;7.93;61.37;93898.81;2075772;69;20140;-80
2024/02/03 02:16:49;;;;;;;2.85;1.13;;;;;;;7.79;61.67;93887.81;2075466;69;20148;-80
2024/02/03 02:19:18;;;;;;;2.08;1.15;;;;;;;7.82;61.29;93885.94;2075360;69;20247;-80
2024/02/03 02:21:44;;;;;;;1.27;1.00;;;;;;;7.77;62.00;93884.81;2075610;69;20242;-78
2024/02/03 02:24:10;;;;;;;2.10;1.20;;;;;;;7.71;61.18;93867.47;2075210;69;20640;-78
2024/02/03 02:26:36;;;;;;;1.45;1.20;;;;;;;7.68;62.10;93865.78;2076955;69;20621;-79
2024/02/03 02:29:02;;;;;;;1.42;0.95;;;;;;;7.57;62.14;93860.59;2073174;69;20291;-80
2024/02/03 02:31:28;;;;;;;2.20;1.17;;;;;;;7.61;61.29;93824.53;2075656;69;20136;-80
2024/02/03 02:33:55;;;;;;;1.98;1.40;;;;;;;7.56;61.50;93840.22;2075052;69;20194;-81
2024/02/03 02:36:21;;;;;;;1.48;1.10;;;;;;;7.56;61.72;93833.84;2075571;69;20180;-79
2024/02/03 02:38:48;;;;;;;1.77;1.20;;;;;;;7.75;61.49;93867.84;2075208;69;20144;-78
2024/02/03 02:41:13;;;;;;;2.38;1.10;;;;;;;7.68;62.21;93851.03;2075670;69;20144;-78
2024/02/03 02:43:39;;;;;;;1.75;1.08;;;;;;;7.68;62.03;93846.16;2075326;69;20193;-80
2024/02/03 02:46:05;;;;;;;1.95;1.30;;;;;;;7.60;62.14;93851.03;2075310;69;20234;-78
2024/02/03 02:48:30;;;;;;;2.88;1.33;;;;;;;7.60;62.40;93854.56;2075246;69;20205;-79
2024/02/03 02:50:56;;;;;;;1.30;1.10;;;;;;;7.55;62.12;93861.13;2075366;69;20144;-78
2024/02/03 02:53:22;;;;;;;2.20;1.13;;;;;;;7.39;62.07;93851.28;2075097;69;20231;-82
2024/02/03 02:55:48;;;;;;;1.95;0.95;;;;;;;7.36;62.94;93846.78;2075485;69;20234;-79
2024/02/03 02:58:13;;;;;;;3.13;1.00;;;;;;;7.45;62.74;93849.00;2075224;69;20239;-77
2024/02/03 03:00:39;;;;;;;1.30;1.05;;;;;;;7.42;62.22;93835.38;2075360;69;20142;-78
2024/02/03 03:03:05;;;;;;;1.52;0.90;;;;;;;7.33;63.68;93843.06;2075462;69;20155;-79
2024/02/03 03:05:30;;;;;;;2.60;1.17;;;;;;;7.38;63.12;93833.72;2071801;69;20583;-80
2024/02/03 03:07:56;;;;;;;1.42;1.00;;;;;;;7.16;63.76;93828.16;2075235;69;20587;-79
2024/02/03 03:10:22;;;;;;;1.85;1.25;;;;;;;7.31;63.76;93830.94;2075521;69;20599;-79
2024/02/03 03:12:47;;;;;;;1.13;1.00;;;;;;;7.11;64.10;93822.19;2075246;69;20131;-80
2024/02/03 03:15:13;;;;;;;1.90;1.10;;;;;;;7.26;63.38;93818.59;2075371;69;20662;-81
2024/02/03 03:17:39;;;;;;;1.00;0.90;;;;;;;7.20;63.11;93818.06;2075346;69;20571;-79
2024/02/03 03:20:05;;;;;;;1.40;0.90;;;;;;;7.31;63.37;93823.25;2068899;69;20151;-81
2024/02/03 03:22:31;;;;;;;1.58;0.85;;;;;;;7.11;63.55;93821.44;2075345;69;20229;-79
2024/02/03 03:24:58;;;;;;;1.83;1.10;;;;;;;6.95;64.22;93819.94;2069087;69;20132;-75
2024/02/03 03:27:24;;;;;;;0.95;0.80;;;;;;;6.90;65.18;93818.06;2075101;69;20584;-77
2024/02/03 03:29:49;;;;;;;1.73;0.90;;;;;;;6.98;64.54;93816.78;2075241;69;20253;-76
2024/02/03 03:32:15;;;;;;;3.08;1.33;;;;;;;6.91;64.21;93814.72;2075111;69;20144;-78
2024/02/03 03:34:41;;;;;;;1.48;1.30;;;;;;;7.00;64.34;93816.19;2075298;69;20140;-79
2024/02/03 03:37:07;;;;;;;1.70;1.30;;;;;;;7.10;63.79;93817.13;2075316;69;20148;-80
2024/02/03 03:39:33;;;;;;;5.32;1.30;;;;;;;6.99;64.17;93812.66;2075308;69;20140;-79
2024/02/03 03:41:58;;;;;;;1.90;1.20;;;;;;;7.07;63.93;93805.00;2075210;69;20131;-78
2024/02/03 03:44:24;;;;;;;1.55;1.15;;;;;;;6.78;64.46;93810.06;2075306;69;20213;-79
2024/02/03 03:46:50;;;;;;;3.05;1.23;;;;;;;7.01;64.28;93798.09;2075231;69;20187;-78
2024/02/03 03:49:16;;;;;;;1.65;1.20;;;;;;;7.00;64.19;93799.41;2075014;69;20139;-78
2024/02/03 03:51:41;;;;;;;1.40;1.10;;;;;;;6.93;65.09;93798.13;2075205;69;20566;-78
2024/02/03 03:54:07;;;;;;;1.35;1.00;;;;;;;6.86;65.24;93796.06;2075093;69;20648;-76
2024/02/03 03:56:32;;;;;;;1.80;1.10;;;;;;;6.90;64.69;93793.63;2075029;69;20176;-77
2024/02/03 03:58:59;;;;;;;1.67;1.10;;;;;;;6.88;64.63;93799.78;2071731;69;20230;-75
2024/02/03 04:01:24;;;;;;;1.25;0.90;;;;;;;6.81;65.67;93794.19;2075174;69;20147;-77
2024/02/03 04:03:50;;;;;;;2.17;1.05;;;;;;;6.88;65.02;93791.41;2075023;69;20229;-77
2024/02/03 04:06:16;;;;;;;1.23;1.00;;;;;;;6.76;65.17;93797.94;2075507;69;20293;-77
2024/02/03 04:08:41;;;;;;;1.60;1.20;;;;;;;6.76;65.20;93797.94;2075558;69;20152;-79
2024/02/03 04:11:07;;;;;;;2.13;1.10;;;;;;;6.77;65.26;93799.41;2069469;69;20139;-78
2024/02/03 04:13:33;;;;;;;1.08;0.90;;;;;;;6.72;65.65;93780.75;2076136;69;20211;-76
2024/02/03 04:15:58;;;;;;;1.83;1.05;;;;;;;6.93;64.74;93797.38;2077898;69;20158;-79
2024/02/03 04:18:25;;;;;;;2.25;1.35;;;;;;;6.65;65.38;93799.06;2076257;69;20182;-76
2024/02/03 04:20:51;;;;;;;1.40;1.20;;;;;;;6.71;65.85;93802.41;2075888;69;20158;-80
2024/02/03 04:23:17;;;;;;;1.30;0.90;;;;;;;6.70;66.58;93803.72;2074532;69;20143;-75
2024/02/03 04:25:43;;;;;;;1.35;1.00;;;;;;;6.88;65.25;93796.25;2075542;69;20135;-76
2024/02/03 04:28:08;;;;;;;1.25;1.00;;;;;;;6.67;65.44;93788.03;2075621;69;20523;-76
2024/02/03 04:30:34;;;;;;;2.08;1.00;;;;;;;6.72;65.41;93786.34;2075556;69;20168;-76
2024/02/03 04:32:59;;;;;;;1.77;1.30;;;;;;;6.74;65.59;93784.50;2075405;69;20729;-75
2024/02/03 04:35:25;;;;;;;2.08;1.08;;;;;;;6.76;65.60;93781.88;2075400;69;20509;-79
2024/02/03 04:37:51;;;;;;;1.27;0.95;;;;;;;6.68;65.72;93778.31;2075482;69;20136;-79
2024/02/03 04:40:16;;;;;;;1.02;0.90;;;;;;;6.69;65.72;93779.06;2075426;69;20158;-79
2024/02/03 04:42:42;;;;;;;1.45;0.90;;;;;;;6.68;66.12;93772.72;2075376;69;20144;-81
2024/02/03 04:45:08;;;;;;;1.92;1.20;;;;;;;6.53;65.74;93751.09;2075290;69;20140;-80
2024/02/03 04:47:34;;;;;;;0.93;0.85;;;;;;;6.51;66.50;93767.72;2075196;69;20168;-78
2024/02/03 04:50:00;;;;;;;2.00;1.17;;;;;;;6.50;66.96;93774.59;2075411;69;20250;-78
2024/02/03 04:52:29;;;;;;;1.27;0.90;;;;;;;6.58;66.27;93771.81;2075416;69;20144;-75
2024/02/03 04:54:55;;;;;;;2.05;1.00;;;;;;;6.59;66.67;93762.09;2075330;69;20142;-76
2024/02/03 04:57:20;;;;;;;1.10;0.88;;;;;;;6.56;66.98;93763.22;2075405;69;20164;-80
2024/02/03 04:59:52;;;;;;;1.23;1.02;;;;;;;6.48;67.17;93762.47;2072218;69;20136;-76
2024/02/03 05:02:19;;;;;;;1.70;1.13;;;;;;;6.47;67.03;93761.75;2075339;69;20171;-76
2024/02/03 05:04:46;;;;;;;1.98;1.30;;;;;;;6.56;66.94;93763.97;2077266;69;20152;-80
2024/02/03 05:07:12;;;;;;;1.83;1.30;;;;;;;6.55;66.45;93759.69;2075435;69;20263;-80
2024/02/03 05:09:38;;;;;;;1.52;1.10;;;;;;;6.46;66.24;93760.25;2074749;69;20176;-78
2024/02/03 05:12:04;;;;;;;2.00;1.40;;;;;;;6.49;66.51;93763.97;2075327;69;20737;-75
2024/02/03 05:14:29;;;;;;;1.70;1.23;;;;;;;6.59;66.31;93765.63;2075467;69;20156;-77
2024/02/03 05:16:55;;;;;;;1.50;1.10;;;;;;;6.55;65.97;93748.50;2075692;69;20567;-79
2024/02/03 05:19:22;;;;;;;2.38;1.35;;;;;;;6.59;66.22;93759.31;2071950;69;20132;-78
2024/02/03 05:21:48;;;;;;;1.60;1.23;;;;;;;6.58;66.05;93760.59;2075676;69;20140;-78
2024/02/03 05:24:13;;;;;;;2.58;1.40;;;;;;;6.60;66.16;93758.00;2076366;69;20258;-76
2024/02/03 05:26:42;;;;;;;2.38;1.40;;;;;;;6.48;66.42;93745.69;2076843;69;20611;-78
2024/02/03 05:29:07;;;;;;;1.33;1.20;;;;;;;6.43;66.92;93755.03;2076214;69;20606;-77
2024/02/03 05:31:33;;;;;;;1.55;1.17;;;;;;;6.52;66.88;93752.41;2075729;69;20210;-79
2024/02/03 05:34:00;;;;;;;3.15;1.52;;;;;;;6.28;67.09;93748.13;2075725;69;20143;-80
2024/02/03 05:36:25;;;;;;;1.88;1.40;;;;;;;6.35;66.86;93755.75;2075665;69;20642;-75
2024/02/03 05:38:51;;;;;;;3.75;1.70;;;;;;;6.38;66.10;93745.50;2075774;69;20136;-77
2024/02/03 05:41:17;;;;;;;1.35;1.10;;;;;;;6.29;67.51;93752.41;2075740;69;20560;-79
2024/02/03 05:43:42;;;;;;;1.63;1.17;;;;;;;6.26;67.53;93752.75;2075560;69;20148;-78
2024/02/03 05:46:08;;;;;;;2.33;1.42;;;;;;;6.23;67.32;93737.09;2075560;69;20147;-77
2024/02/03 05:48:34;;;;;;;7.55;2.60;;;;;;;6.31;67.59;93746.25;2075436;69;20609;-75
2024/02/03 05:50:59;;;;;;;2.80;1.73;;;;;;;6.13;67.70;93753.66;2075534;69;20230;-77
2024/02/03 05:53:25;;;;;;;2.47;1.58;;;;;;;6.29;67.40;93749.59;2072453;69;20213;-78
2024/02/03 05:55:50;;;;;;;1.30;1.20;;;;;;;6.15;68.21;93748.28;2075497;69;20525;-80
2024/02/03 05:58:18;;;;;;;1.73;1.30;;;;;;;6.19;67.97;93750.72;2075691;69;20217;-76
2024/02/03 06:00:43;;;;;;;1.05;0.85;;;;;;;6.15;68.82;93739.91;2075659;69;20155;-78
2024/02/03 06:03:09;;;;;;;1.90;1.48;;;;;;;6.18;67.90;93743.59;2072247;69;20140;-77
2024/02/03 06:05:34;;;;;;;3.08;1.52;;;;;;;6.21;67.89;93742.50;2075608;69;20492;-78
2024/02/03 06:08:00;;;;;;;3.42;2.17;;;;;;;6.24;68.11;93742.13;2072287;69;20199;-76
2024/02/03 06:10:25;;;;;;;2.58;1.40;;;;;;;6.22;68.53;93744.72;2075600;69;20181;-76
2024/02/03 06:12:51;;;;;;;1.65;1.10;;;;;;;6.32;68.31;93756.88;2075753;69;20132;-79
2024/02/03 06:15:17;;;;;;;1.75;1.08;;;;;;;6.24;68.70;93747.72;2075559;69;20627;-77
2024/02/03 06:17:43;;;;;;;1.77;1.10;;;;;;;6.27;68.42;93749.41;2072133;69;20220;-79
2024/02/03 06:20:09;;;;;;;1.60;1.20;;;;;;;6.27;68.84;93743.06;2075628;69;20134;-78
2024/02/03 06:22:35;;;;;;;2.03;1.50;;;;;;;6.16;68.54;93741.38;2075598;69;20199;-76
2024/02/03 06:25:01;;;;;;;2.35;1.70;;;;;;;6.19;68.39;93757.06;2075622;69;20607;-77
2024/02/03 06:27:26;;;;;;;3.78;2.10;;;;;;;5.93;68.00;93744.13;2075486;69;20136;-79
2024/02/03 06:29:52;;;;;;;5.97;2.92;;;;;;;5.81;68.89;93738.09;2075551;69;20605;-79
2024/02/03 06:32:18;;;;;;;4.95;2.55;;;;;;;6.03;68.73;93747.13;2075609;69;20162;-75
2024/02/03 06:34:43;;;;;;;3.75;2.10;;;;;;;6.16;68.46;93744.19;2075583;69;20132;-76
2024/02/03 06:37:10;;;;;;;3.40;2.33;;;;;;;6.17;68.46;93748.47;2075001;69;20146;-77
2024/02/03 06:39:35;;;;;;;2.97;1.90;;;;;;;6.20;68.23;93752.19;2075587;69;20147;-78
2024/02/03 06:42:01;;;;;;;3.13;1.77;;;;;;;6.37;67.76;93758.00;2075677;69;20144;-76
2024/02/03 06:44:27;;;;;;;12.50;6.43;;;;;;;6.18;67.96;93761.13;2075650;69;20152;-76
2024/02/03 06:46:52;;;;;;;3.08;1.88;;;;;;;6.22;68.56;93764.31;2075553;69;20514;-76
2024/02/03 06:49:18;;;;;;;3.80;2.30;;;;;;;6.11;68.50;93765.41;2075436;69;20136;-76
2024/02/03 06:51:44;;;;;;;4.70;2.15;;;;;;;6.31;68.17;93768.59;2075571;69;20155;-79
2024/02/03 06:54:09;;;;;;;3.05;2.20;;;;;;;6.27;68.13;93768.97;2075536;69;20151;-76
2024/02/03 06:56:35;;;;;;;3.35;2.10;;;;;;;6.34;68.21;93773.09;2075633;69;20148;-77
2024/02/03 06:59:00;;;;;;;3.17;2.30;;;;;;;6.27;67.82;93774.56;2075547;69;20179;-79
2024/02/03 07:01:26;;;;;;;2.70;1.98;;;;;;;6.25;68.14;93770.84;2075776;69;20579;-77
2024/02/03 07:03:51;;;;;;;5.90;2.20;;;;;;;6.23;68.76;93773.44;2075342;69;20162;-79
2024/02/03 07:06:17;;;;;;;4.45;2.78;;;;;;;6.14;69.09;93766.38;2072130;69;20135;-79
2024/02/03 07:08:42;;;;;;;6.75;3.63;;;;;;;6.21;69.01;93771.22;2075525;69;20526;-77
2024/02/03 07:11:08;;;;;;;6.10;3.40;;;;;;;6.44;67.79;93785.22;2072750;69;20144;-77
2024/02/03 07:13:35;;;;;;;7.38;4.65;;;;;;;6.16;68.58;93765.81;2075152;69;20283;-77
2024/02/03 07:16:03;;;;;;;4.13;2.92;;;;;;;6.28;69.17;93781.69;2075972;69;20622;-79
2024/02/03 07:18:29;;;;;;;4.00;2.95;;;;;;;6.10;69.04;93777.91;2075432;69;20235;-76
2024/02/03 07:20:56;;;;;;;4.20;2.83;;;;;;;6.11;69.08;93789.84;2075502;69;20223;-76
2024/02/03 07:23:21;;;;;;;5.78;2.30;;;;;;;6.00;69.83;93779.75;2075337;69;20221;-77
2024/02/03 07:25:47;;;;;;;3.60;2.35;;;;;;;6.31;68.63;93785.38;2075936;69;20167;-78
2024/02/03 07:28:13;;;;;;;4.05;2.50;;;;;;;6.20;68.76;93794.88;2073134;69;20265;-78
2024/02/03 07:30:38;;;;;;;4.55;2.80;;;;;;;6.36;68.28;93788.00;2077321;69;20638;-78
2024/02/03 07:33:07;;;;;;;4.05;2.80;;;;;;;6.34;68.37;93785.03;2075429;69;20139;-77
2024/02/03 07:35:34;;;;;;;6.32;2.50;;;;;;;6.38;68.39;93781.13;2075513;69;20156;-77
2024/02/03 07:37:59;;;;;;;4.28;2.70;;;;;;;6.42;67.94;93785.06;2075554;69;20136;-79
2024/02/03 07:40:25;;;;;;;5.03;2.40;;;;;;;6.47;68.10;93783.38;2075141;69;20143;-78
2024/02/03 07:42:51;;;;;;;3.65;2.20;;;;;;;6.53;67.80;93781.88;2072093;69;20175;-77
2024/02/03 07:45:16;;;;;;;3.70;2.30;;;;;;;6.64;67.58;93786.34;2075358;69;20139;-77
2024/02/03 07:47:44;;;;;;;4.53;2.20;;;;;;;6.69;67.09;93793.84;2075273;69;20235;-78
2024/02/03 07:50:09;;;;;;;3.40;2.20;;;;;;;6.59;68.23;93790.81;2075476;69;20187;-77
2024/02/03 07:52:35;;;;;;;4.32;1.98;;;;;;;6.56;68.18;93794.00;2075458;69;20633;-79
2024/02/03 07:55:03;;;;;;;3.08;2.00;;;;;;;6.53;67.92;93789.53;2075397;69;20238;-77
2024/02/03 07:57:29;;;;;;;4.57;2.38;;;;;;;6.66;67.36;93794.19;2075403;69;20144;-78
2024/02/03 07:59:55;;;;;;;3.33;2.20;;;;;;;6.46;67.48;93782.63;2072020;69;20226;-78
2024/02/03 08:02:21;;;;;;;4.93;2.40;;;;;;;6.69;66.78;93779.84;2075307;69;20167;-80
2024/02/03 08:04:46;;;;;;;5.38;2.50;;;;;;;6.75;67.18;93790.84;2075379;69;20219;-78
2024/02/03 08:07:13;;;;;;;7.57;3.95;;;;;;;6.47;68.25;93783.38;2075353;69;20197;-79
2024/02/03 08:09:38;;;;;;;6.78;3.80;;;;;;;6.60;67.33;93781.16;2072053;69;20205;-79
2024/02/03 08:12:06;;;;;;;6.43;3.17;;;;;;;6.46;68.10;93781.84;2075499;69;20148;-78
2024/02/03 08:14:31;;;;;;;4.43;2.72;;;;;;;6.72;67.28;93775.16;2074445;69;20607;-78
2024/02/03 08:16:57;;;;;;;3.25;2.10;;;;;;;6.59;67.88;93782.44;2075137;69;20147;-78
2024/02/03 08:19:23;;;;;;;5.60;3.35;;;;;;;6.50;67.58;93771.03;2075397;69;20151;-77
2024/02/03 08:21:48;;;;;;;7.90;3.92;;;;;;;6.51;67.65;93767.72;2075355;69;20183;-77
2024/02/03 08:24:14;;;;;;;5.80;3.17;;;;;;;6.64;67.31;93769.56;2072051;69;20151;-78
2024/02/03 08:26:40;;;;;;;4.75;3.05;;;;;;;6.68;67.16;93769.19;2075344;69;20194;-77
2024/02/03 08:29:05;;;;;;;6.72;2.63;;;;;;;6.81;67.43;93757.81;2075236;69;20152;-76
2024/02/03 08:31:31;;;;;;;4.75;2.75;;;;;;;6.68;67.09;93744.75;2074250;69;20310;-77
2024/02/03 08:33:57;;;;;;;8.20;3.60;;;;;;;6.74;66.98;93738.97;2074121;69;20160;-78
2024/02/03 08:36:23;;;;;;;5.80;3.10;;;;;;;6.78;66.95;93740.09;2071035;69;20144;-77
2024/02/03 08:38:49;;;;;;;4.97;2.90;;;;;;;6.76;67.51;93744.75;2074434;69;20199;-76
2024/02/03 08:41:15;;;;;;;4.95;2.80;;;;;;;7.32;67.10;93745.56;2074626;69;20522;-76
2024/02/03 08:43:40;;;;;;;6.55;3.08;;;;;;;7.88;66.33;93747.03;2074777;69;20171;-77
2024/02/03 08:46:07;;;;;;;4.63;2.97;;;;;;;8.28;65.30;93725.84;2075077;69;20341;-76
2024/02/03 08:48:33;;;;;;;5.30;2.80;;;;;;;8.71;65.96;93732.31;2075113;69;20147;-75
2024/02/03 08:50:58;;;;;;;4.68;2.38;;;;;;;8.91;63.19;93748.78;2075324;69;20136;-76
2024/02/03 08:53:24;;;;;;;8.98;4.63;;;;;;;8.80;64.97;93749.25;2072336;69;20236;-76
2024/02/03 08:55:50;;;;;;;11.68;5.70;;;;;;;9.31;65.49;93742.22;2075757;69;20151;-78
2024/02/03 08:58:15;;;;;;;12.07;5.78;;;;;;;9.62;63.74;93741.88;2075739;69;20150;-77
2024/02/03 09:00:41;;;;;;;6.75;4.18;;;;;;;9.93;62.62;93742.97;2079073;69;20140;-77
2024/02/03 09:03:07;;;;;;;9.50;5.10;;;;;;;9.51;61.44;93745.94;2073681;69;20139;-79
2024/02/03 09:05:33;;;;;;;6.72;4.00;;;;;;;10.08;60.21;93741.28;2075784;69;20495;-77
2024/02/03 09:07:58;;;;;;;5.93;4.00;;;;;;;10.04;60.93;93747.38;2072369;69;20214;-79
2024/02/03 09:10:24;;;;;;;7.70;4.25;;;;;;;10.29;60.01;93749.31;2075840;69;20621;-77
2024/02/03 09:12:51;;;;;;;5.25;3.67;;;;;;;10.74;59.66;93749.94;2075693;69;20140;-76
2024/02/03 09:15:16;;;;;;;6.22;2.78;;;;;;;10.91;57.15;93739.34;2075886;69;20223;-79
2024/02/03 09:17:43;;;;;;;2.22;2.00;;;;;;;11.50;55.54;93733.78;2075687;69;20487;-79
2024/02/03 09:20:09;;;;;;;5.20;2.38;;;;;;;11.65;56.29;93736.34;2075729;69;20143;-76
2024/02/03 09:22:35;;;;;;;3.90;2.53;;;;;;;12.23;55.59;93744.75;2075556;69;20148;-77
2024/02/03 09:25:01;;;;;;;6.43;4.20;;;;;;;12.07;56.34;93738.69;2075821;69;20179;-76
2024/02/03 09:27:26;;;;;;;4.68;3.50;;;;;;;12.35;55.55;93742.78;2075647;69;20237;-77
2024/02/03 09:29:52;;;;;;;5.45;3.13;;;;;;;12.76;56.20;93736.44;2075749;69;20498;-76
2024/02/03 09:32:18;;;;;;;2.28;1.80;;;;;;;13.49;53.79;93730.09;2075544;69;20156;-81
2024/02/03 09:34:48;;;;;;;2.08;1.55;;;;;;;13.66;50.50;93726.25;2075703;69;20147;-80
2024/02/03 09:37:13;;;;;;;6.28;2.40;;;;;;;13.57;50.39;93732.72;2069577;69;20247;-83
2024/02/03 09:39:42;;;;;;;7.82;3.38;;;;;;;12.86;52.74;93734.28;2075819;69;20163;-81
2024/02/03 09:42:09;;;;;;;5.50;3.50;;;;;;;13.35;52.24;93729.16;2075733;69;20592;-77
2024/02/03 09:44:35;;;;;;;5.28;2.80;;;;;;;14.04;51.98;93730.09;2072265;69;20152;-77
2024/02/03 09:47:02;;;;;;;4.35;2.60;;;;;;;14.30;49.49;93736.72;2075342;69;20278;-77
2024/02/03 09:49:27;;;;;;;10.15;4.32;;;;;;;13.35;52.07;93729.88;2075505;69;20156;-79
2024/02/03 09:51:53;;;;;;;10.77;3.90;;;;;;;14.50;50.52;93732.34;2075535;69;20155;-80
2024/02/03 09:54:19;;;;;;;10.65;3.75;;;;;;;14.90;50.08;93736.22;2075546;69;20231;-77
2024/02/03 09:56:47;;;;;;;6.82;3.13;;;;;;;14.15;50.04;93730.13;2075448;69;20240;-76
2024/02/03 09:59:14;;;;;;;5.22;2.90;;;;;;;15.13;51.16;93735.50;2075630;69;20555;-76
2024/02/03 10:01:45;;;;;;;4.82;3.25;;;;;;;15.48;49.06;93744.69;2075476;69;20140;-81
2024/02/03 10:04:12;;;;;;;9.63;2.92;;;;;;;15.69;49.26;93738.13;2075155;69;20171;-78
2024/02/03 10:06:41;;;;;;;8.25;4.00;;;;;;;15.95;49.51;93741.03;2075340;69;20584;-78
2024/02/03 10:09:08;;;;;;;14.48;7.72;;;;;;;16.17;47.55;93739.47;2075410;69;20187;-77
2024/02/03 10:11:40;;;;;;;7.40;3.33;;;;;;;16.55;47.39;93739.41;2072162;69;20677;-81
2024/02/03 10:14:06;;;;;;;2.95;2.10;;;;;;;16.68;45.00;93725.22;2075381;69;20180;-78
2024/02/03 10:16:42;;;;;;;4.93;2.10;;;;;;;17.62;45.92;93727.31;2072013;69;20254;-79
2024/02/03 10:19:08;;;;;;;4.85;2.60;;;;;;;17.96;45.08;93724.75;2075383;69;20518;-81
2024/02/03 10:21:33;;;;;;;7.60;3.30;;;;;;;18.09;44.89;93726.81;2075406;69;20560;-81
2024/02/03 10:23:59;;;;;;;7.65;2.97;;;;;;;17.98;44.50;93717.06;2075334;69;20600;-79
2024/02/03 10:26:25;;;;;;;8.73;3.40;;;;;;;17.94;43.95;93722.53;2075239;69;20144;-79
2024/02/03 10:28:50;;;;;;;4.88;2.60;;;;;;;18.13;44.20;93720.59;2075344;69;20588;-79
2024/02/03 10:31:16;;;;;;;5.20;2.65;;;;;;;19.17;43.29;93714.09;2075402;69;20152;-78
2024/02/03 10:33:44;;;;;;;8.05;2.50;;;;;;;19.88;42.23;93705.03;2075367;69;20148;-80
2024/02/03 10:36:10;;;;;;;8.45;2.90;;;;;;;19.35;41.72;93706.34;2075420;69;20236;-80
2024/02/03 10:38:36;;;;;;;6.30;2.90;;;;;;;19.12;41.91;93695.31;2075517;69;20574;-79
2024/02/03 10:41:03;;;;;;;6.00;2.50;;;;;;;20.45;41.37;93690.97;2075398;69;20144;-79
2024/02/03 10:43:34;;;;;;;4.72;1.67;;;;;;;19.99;40.43;93690.53;2075496;69;20150;-81
2024/02/03 10:46:07;;;;;;;2.45;1.38;;;;;;;20.42;40.79;93685.81;2075388;69;20136;-79
2024/02/03 10:48:35;;;;;;;3.08;1.27;;;;;;;21.49;40.31;93679.88;2075231;69;20218;-78
2024/02/03 10:51:13;;;;;;;3.60;1.80;;;;;;;22.69;38.46;93674.56;2071943;69;20147;-79
2024/02/03 10:53:55;;;;;;;2.10;1.45;;;;;;;22.89;36.21;93678.06;2075645;69;20235;-76
2024/02/03 10:56:23;;;;;;;4.00;1.30;;;;;;;23.18;36.80;93673.16;2075303;69;20680;-79
2024/02/03 10:58:49;;;;;;;2.25;1.30;;;;;;;23.83;35.34;93681.50;2071920;69;20144;-78
2024/02/03 11:01:20;;;;;;;2.22;1.20;;;;;;;23.08;38.06;93682.94;2075219;69;20144;-79
2024/02/03 11:03:52;;;;;;;4.35;1.50;;;;;;;22.49;36.29;93689.72;2075317;69;20244;-83
2024/02/03 11:06:47;;;;;;;1.95;1.40;;;;;;;26.03;32.10;93668.50;2075183;69;20148;-79
2024/02/03 11:09:15;;;;;;;4.20;2.67;;;;;;;25.39;30.43;93668.69;2057944;69;20587;-80
2024/02/03 11:11:46;;;;;;;4.35;3.42;;;;;;;26.29;30.82;93667.50;2057728;69;20498;-78
2024/02/03 11:14:15;;;;;;;2.88;1.20;;;;;;;26.50;31.53;93674.38;2055019;69;20570;-80
2024/02/03 11:16:40;;;;;;;6.00;1.00;;;;;;;27.85;30.53;93671.25;2054992;69;20149;-82
2024/02/03 11:19:12;;;;;;;2.38;1.10;;;;;;;28.38;29.65;93663.13;2057511;69;20644;-80
2024/02/03 11:21:44;;;;;;;1.42;1.00;;;;;;;29.95;27.54;93666.31;2057789;69;20278;-81
2024/02/03 11:24:10;;;;;;;2.35;1.10;;;;;;;31.41;25.65;93662.06;2057866;69;20142;-79
2024/02/03 11:26:39;;;;;;;1.17;1.08;;;;;;;29.05;28.09;93651.38;2057817;69;20138;-80
2024/02/03 11:29:06;;;;;;;2.42;1.10;;;;;;;29.52;29.08;93655.25;2054931;69;20255;-81
2024/02/03 11:31:31;;;;;;;2.90;1.02;;;;;;;32.46;26.47;93646.31;2057704;69;20192;-85
2024/02/03 11:33:58;;;;;;;1.33;1.00;;;;;;;33.89;24.12;93642.75;2055031;69;20606;-81
2024/02/03 11:36:24;;;;;;;3.75;0.90;;;;;;;32.52;23.60;93646.25;2058007;69;20613;-83